sim
Sign-in with your pilot id or email,
or register
Callsign
Passwort

Schedule Details

Flight Number: DLH2142 (1)
Departure: Munich Airport (EDDM) at 14:10
Arrival: Munster Osnabruck International -?Airport (EDDG) at 15:25
Route: Lufthansa Passenger Schedule. Enter filed route here before submitting Pirep.

Weather Information
Getting current METAR information for EDDM 201650Z 04003KT 350V050 CAVOK 20/11 Q1015 NOSIG
Getting current METAR information for EDDG 201650Z 04005KT 010V090 CAVOK 21/08 Q1017 NOSIG

Schedule Frequency

Route Map